createdAt,value
2023-05-02T00:02:36.073Z,12.93
2023-05-02T00:07:41.832Z,12.93
2023-05-02T00:12:47.045Z,12.97
2023-05-02T00:17:52.256Z,12.96
2023-05-02T00:23:00.411Z,13.16
2023-05-02T00:28:06.335Z,13.20
2023-05-02T00:33:13.415Z,13.07
2023-05-02T00:38:18.891Z,12.87
2023-05-02T00:43:24.997Z,12.90
2023-05-02T00:48:30.956Z,12.93
2023-05-02T00:53:37.057Z,13.14
2023-05-02T00:58:43.135Z,12.84
2023-05-02T01:04:01.966Z,13.03
2023-05-02T01:09:31.953Z,13.09
2023-05-02T01:14:47.781Z,13.08
2023-05-02T01:19:57.431Z,13.10
2023-05-02T01:25:52.132Z,13.15
2023-05-02T01:30:57.695Z,13.14
2023-05-02T01:36:04.185Z,13.18
2023-05-02T01:41:11.828Z,13.16
2023-05-02T01:46:18.159Z,13.15
2023-05-02T01:51:32.513Z,13.18
2023-05-02T01:56:40.285Z,13.27
2023-05-02T02:01:47.042Z,13.18
2023-05-02T02:07:00.638Z,13.31
2023-05-02T02:12:12.795Z,13.39
2023-05-02T02:17:26.907Z,13.50
2023-05-02T02:22:38.113Z,13.39
2023-05-02T02:27:44.499Z,13.30
2023-05-02T02:32:49.974Z,13.33
2023-05-02T02:38:40.781Z,13.29
2023-05-02T02:43:54.873Z,13.25
2023-05-02T02:49:37.703Z,13.23
2023-05-02T02:55:00.216Z,13.33
2023-05-02T03:00:21.952Z,13.48
2023-05-02T03:05:27.159Z,13.43
2023-05-02T03:10:34.303Z,13.43
2023-05-02T03:15:54.445Z,13.52
2023-05-02T03:21:07.568Z,13.45
2023-05-02T03:26:14.220Z,13.73
2023-05-02T03:31:18.627Z,13.91
2023-05-02T03:36:24.038Z,14.07
2023-05-02T03:41:32.578Z,14.27
2023-05-02T03:46:43.846Z,14.43
2023-05-02T03:51:50.735Z,14.60
2023-05-02T03:57:05.378Z,14.87
2023-05-02T04:02:13.031Z,15.15
2023-05-02T04:07:26.418Z,15.26
2023-05-02T04:12:37.979Z,15.31
2023-05-02T04:17:42.725Z,15.28
2023-05-02T04:22:50.817Z,15.41
2023-05-02T04:27:57.735Z,15.66
2023-05-02T04:33:04.306Z,16.36
2023-05-02T04:38:16.504Z,17.07
2023-05-02T04:43:24.934Z,17.04
2023-05-02T04:48:35.447Z,17.56
2023-05-02T04:53:44.732Z,18.15
2023-05-02T05:06:39.272Z,18.85
2023-05-02T05:11:47.709Z,19.21
2023-05-02T05:16:53.859Z,19.44
2023-05-02T06:05:40.073Z,23.26
2023-05-02T06:10:45.541Z,22.87
2023-05-02T06:15:50.514Z,22.01
2023-05-02T06:20:55.549Z,21.19
2023-05-02T06:26:04.495Z,20.81
2023-05-02T06:31:08.895Z,20.54
2023-05-02T06:36:13.213Z,20.87
2023-05-02T06:41:18.302Z,21.05
2023-05-02T06:46:22.870Z,21.10
2023-05-02T06:51:28.293Z,20.60
2023-05-02T06:56:36.030Z,20.43
2023-05-02T07:01:40.392Z,20.85
2023-05-02T07:06:44.893Z,20.83
2023-05-02T07:11:51.090Z,20.59
2023-05-02T07:16:55.496Z,20.48
2023-05-02T07:21:59.871Z,20.48
2023-05-02T08:33:56.685Z,21.17
2023-05-02T08:39:00.989Z,21.09
2023-05-02T08:44:08.522Z,21.52
2023-05-02T08:49:14.460Z,21.61
2023-05-02T08:54:20.547Z,21.84
2023-05-02T08:59:24.772Z,21.69
2023-05-02T09:04:35.449Z,21.35
2023-05-02T09:09:39.665Z,21.10
2023-05-02T09:14:45.951Z,20.76
2023-05-02T09:20:01.562Z,20.16
2023-05-02T09:25:08.353Z,20.19
2023-05-02T09:30:27.009Z,20.14
2023-05-02T09:35:31.605Z,20.15
2023-05-02T09:40:36.638Z,20.26
2023-05-02T09:45:40.990Z,20.53
2023-05-02T09:50:45.240Z,20.80
2023-05-02T09:55:59.824Z,21.02
2023-05-02T10:01:04.467Z,21.21
2023-05-02T10:06:10.871Z,21.25
2023-05-02T10:11:15.996Z,21.18
2023-05-02T10:16:29.687Z,21.57
2023-05-02T10:21:35.468Z,21.45
2023-05-02T10:26:40.367Z,21.03
2023-05-02T10:31:46.410Z,20.41
2023-05-02T10:36:50.474Z,20.03
2023-05-02T10:41:56.308Z,19.57
2023-05-02T10:47:00.974Z,19.48
2023-05-02T10:52:34.895Z,19.42
2023-05-02T10:58:01.918Z,19.26
2023-05-02T11:03:06.947Z,19.21
2023-05-02T11:08:20.270Z,19.12
2023-05-02T11:13:51.598Z,19.05
2023-05-02T11:19:02.214Z,18.98
2023-05-02T11:24:41.673Z,18.97
2023-05-02T11:29:56.884Z,18.93
2023-05-02T11:35:02.798Z,19.03
2023-05-02T11:40:14.746Z,19.06
2023-05-02T11:45:19.348Z,19.14
2023-05-02T11:50:26.865Z,19.22
2023-05-02T11:55:32.148Z,19.18
2023-05-02T12:00:37.330Z,19.24
2023-05-02T12:05:41.634Z,19.43
2023-05-02T12:10:46.775Z,19.53
2023-05-02T12:15:52.594Z,19.63
2023-05-02T12:20:57.829Z,19.79
2023-05-02T12:26:22.689Z,19.92
2023-05-02T12:31:29.593Z,19.95
2023-05-02T12:36:34.855Z,19.98
2023-05-02T12:41:44.430Z,19.99
2023-05-02T12:47:02.076Z,19.66
2023-05-02T12:52:06.243Z,19.17
2023-05-02T12:57:11.228Z,19.00
2023-05-02T13:02:16.884Z,18.81
2023-05-02T13:07:22.176Z,18.70
2023-05-02T13:12:27.802Z,18.45
2023-05-02T13:17:33.742Z,18.36
2023-05-02T13:22:39.430Z,18.28
2023-05-02T13:27:46.545Z,18.06
2023-05-02T13:32:51.993Z,17.77
2023-05-02T13:37:57.554Z,17.66
2023-05-02T13:43:03.218Z,17.41
2023-05-02T13:48:08.863Z,17.32
2023-05-02T13:53:14.532Z,17.20
2023-05-02T13:58:19.863Z,17.12
2023-05-02T14:03:25.647Z,17.07
2023-05-02T14:08:31.197Z,17.04
2023-05-02T14:13:36.567Z,17.00
2023-05-02T14:18:42.363Z,16.84
2023-05-02T14:23:47.762Z,16.58
2023-05-02T14:28:53.474Z,16.56
2023-05-02T14:33:59.026Z,16.46
2023-05-02T14:39:04.633Z,16.41
2023-05-02T14:44:10.567Z,16.31
2023-05-02T14:49:16.121Z,16.25
2023-05-02T14:54:29.192Z,16.15
2023-05-02T14:59:36.615Z,16.10
2023-05-02T15:04:41.966Z,16.00
2023-05-02T15:09:47.405Z,15.80
2023-05-02T15:14:53.038Z,15.61
2023-05-02T15:19:58.670Z,15.45
2023-05-02T15:25:05.300Z,15.33
2023-05-02T15:30:12.168Z,15.27
2023-05-02T15:35:17.878Z,15.08
2023-05-02T15:40:23.401Z,14.95
2023-05-02T15:45:28.566Z,14.76
2023-05-02T15:50:34.288Z,14.64
2023-05-02T15:55:39.934Z,14.55
2023-05-02T16:00:46.695Z,14.49
2023-05-02T16:05:54.724Z,14.39
2023-05-02T16:11:02.258Z,14.27
2023-05-02T16:16:08.286Z,14.17
2023-05-02T16:21:14.109Z,14.05
2023-05-02T16:26:21.340Z,13.93
2023-05-02T16:31:27.008Z,13.84
2023-05-02T16:36:32.309Z,13.76
2023-05-02T16:41:37.906Z,13.60
2023-05-02T16:46:43.735Z,13.43
2023-05-02T16:51:52.396Z,13.26
2023-05-02T16:56:58.026Z,13.11
2023-05-02T17:02:03.640Z,13.03
2023-05-02T17:07:11.782Z,13.01
2023-05-02T17:12:24.901Z,12.85
2023-05-02T17:17:29.745Z,12.86
2023-05-02T17:22:36.197Z,12.65
2023-05-02T17:27:41.681Z,12.77
2023-05-02T17:32:47.500Z,12.85
2023-05-02T17:37:53.365Z,12.77
2023-05-02T17:43:00.034Z,12.75
2023-05-02T17:48:07.051Z,12.75
2023-05-02T17:53:13.225Z,12.65
2023-05-02T17:58:19.191Z,12.62
2023-05-02T18:03:25.249Z,12.58
2023-05-02T18:08:32.111Z,12.48
2023-05-02T18:13:40.282Z,12.44
2023-05-02T18:18:46.206Z,12.41
2023-05-02T18:23:52.096Z,12.34
2023-05-02T18:28:57.942Z,12.22
2023-05-02T18:34:03.611Z,12.07
2023-05-02T18:39:08.910Z,11.97
2023-05-02T18:44:14.293Z,11.92
2023-05-02T18:49:20.154Z,11.77
2023-05-02T18:54:26.839Z,11.67
2023-05-02T18:59:32.200Z,11.34
2023-05-02T19:04:37.651Z,11.50
2023-05-02T19:09:43.238Z,11.40
2023-05-02T19:14:51.006Z,11.25
2023-05-02T19:19:58.277Z,11.20
2023-05-02T19:25:04.571Z,11.14
2023-05-02T19:30:10.550Z,11.03
2023-05-02T19:35:16.325Z,10.92
2023-05-02T19:40:21.851Z,10.84
2023-05-02T19:45:28.396Z,10.78
2023-05-02T19:50:34.118Z,10.70
2023-05-02T19:55:39.725Z,10.65
2023-05-02T20:00:46.761Z,10.45
2023-05-02T20:05:52.711Z,10.46
2023-05-02T20:10:58.301Z,10.39
2023-05-02T20:16:03.875Z,10.22
2023-05-02T20:21:09.749Z,10.25
2023-05-02T20:26:16.892Z,10.20
2023-05-02T20:31:23.092Z,10.15
2023-05-02T20:36:30.002Z,10.05
2023-05-02T20:41:36.870Z,10.06
2023-05-02T20:46:43.147Z,10.04
2023-05-02T20:51:48.558Z,9.99
2023-05-02T20:56:53.930Z,9.89
2023-05-02T21:02:00.354Z,9.87
2023-05-02T21:07:05.905Z,9.74
2023-05-02T21:12:11.699Z,9.43
2023-05-02T21:17:17.393Z,9.51
2023-05-02T21:22:23.033Z,9.40
2023-05-02T21:27:28.579Z,9.35
2023-05-02T21:32:34.070Z,9.21
2023-05-02T21:37:39.915Z,9.12
2023-05-02T21:42:45.494Z,9.07
2023-05-02T21:47:51.003Z,9.03
2023-05-02T21:52:56.498Z,9.03
2023-05-02T21:58:01.979Z,9.04
2023-05-02T22:03:09.548Z,9.01
2023-05-02T22:08:15.164Z,8.94
2023-05-02T22:13:20.762Z,8.83
2023-05-02T22:18:26.452Z,8.73
2023-05-02T22:23:32.310Z,8.67
2023-05-02T22:28:37.774Z,8.62
2023-05-02T22:33:45.238Z,8.49
2023-05-02T22:38:50.937Z,8.44
2023-05-02T22:43:56.308Z,8.41
2023-05-02T22:49:03.456Z,8.36
2023-05-02T22:54:09.138Z,8.31
2023-05-02T22:59:15.948Z,8.18
2023-05-02T23:04:21.904Z,8.22
2023-05-02T23:09:27.493Z,8.19
2023-05-02T23:14:32.847Z,8.10
2023-05-02T23:19:38.487Z,7.97
2023-05-02T23:24:48.132Z,7.83
2023-05-02T23:29:53.714Z,7.76
2023-05-02T23:34:59.364Z,7.59
2023-05-02T23:40:05.649Z,7.52
2023-05-02T23:45:12.558Z,7.50
2023-05-02T23:50:19.032Z,7.46
2023-05-02T23:55:24.662Z,7.34
